メインページ
METAR-TAF:

METAR-TAF

空港 :

ポルト・アレグレ, リオグランデ・ド・スル州, ブラジル

サルガド・フィーリョ国際空港

緯度: 30-00S, 経度: 051-11W, 海抜: 3m

現時点の気象観測

当レポートは41分前の00:00(UTC)に作成
南東の風 8kt、から南/南東の間で変化する
気温 20°C
湿度 60%
気圧 1015 hPa
視程10km以上
1,500メートル以下は雲なし、積乱雲なし

METAR: SBPA 120000Z 13008KT 090V150 CAVOK 20/12 Q1015

時間: 22:41 (00:41 UTC)

予報

当レポートは3時間11分前の21:30(UTC)に作成
予報は12日の 00時(UTC)から 12日の 24時(UTC)まで有効
南東の風 7kt
視程10km以上
高度4500ftの雲はほとんどない
12日の 09時(UTC)から 12日の 11時(UTC)まで徐々に
東/南東の風 9kt
視程10km以上
1,500メートル以下は雲なし、積乱雲なし

TAF: SBPA 112130Z 1200/1224 14007KT 9999 FEW045 TN14/1208Z TX27/1218Z BECMG 1209/1211 12009KT CAVOK RMK PER

4,000以上の空港の気象観測と天気予報(METAR報とTAF報)

利用可能な観測所は地図上に黄色い丸と赤い丸で示す。

丸の上にカーソルを重ねると観測所名を参照できる。

次にクリックすると気象観測と天気予報を参照できる。

マップの切り替え:黒色「×」印の緑ボタンをクリックして拡大、「-」印の緑ボタンをクリックして縮小、緑色の三角印をクリックして隣りの地図に切り替え


METAR-TAF: